Brive-Souillac

METAR LFSL TAF LFSL
2 °C
°C
-
°C
26m
Âge
09:55:37
LT
08:55
UTC
0 ft

1.000

2.000

3.000

4.000

5.000

BKN 2.900
BKN 4.700
MVFR
<?= Yii::t('app', 'Wind direction') ?> <?= Yii::t('app', 'of'); ?>
110°
18:09
Coucher de soleil
70%
Humidité
Cisaillement du vent
Fermé/neige
Portée visuelle RWY
Condition RWY
Visibilité vert.
Visibilité min.
CAVOK
Tendance
Correction
Rapport spécial
1026 hPa
QNH
METAR LFSL 070830Z AUTO 11006KT 9999 BKN029 BKN047 02/M03 Q1026 NOSIG
Fragmenté
1 kt
1 kt
09:00
VFR
10 kt
10:00
VFR
10 kt
11:00
VFR
10 kt
12:00
VFR
10 kt
13:00
VFR
10 kt
14:00
VFR
10 kt
15:00
VFR
10 kt
10 km+
Vue
2.900 ft
Base cloud
6 kt
Vent
metar-taf.com/LFSL

Metar-Taf.com

Décodeur visuel

Nous et des tiers suivons ton comportement Internet sur notre site Web à l'aide de cookies. Si tu continues, nous supposons que tu es d'accord avec notre Politique en matière de cookies.